MMLT

Details ICAO MMLT (LTO)
Name LORETO INTL
Region Mexico
Timezone America/Mazatlan (UTC-7.0)
Plans Departing 13
Arriving 13
Stats Elevation 34 ft / 10 m (AMSL)
Location 25.989194° -111.348347°
Runways 1
Magnetic Variation 9.069° E
Sunrise 2017-12-12 14:04:37 UTC / 2017-12-12 07:04:37 Local
Sunset 2017-12-13 00:36:47 UTC / 2017-12-12 17:36:47 Local
Advertisement - Login to hide

Runways

ID Width Length Bearing (true) Bearing (mag) Surface Threshold Offset Overrun Length
16 148 ft / 45 m 7,291 ft / 2,222 m 173.04° 163.97° Asphalt 0 ft / 0 m 185 ft / 56 m
34 148 ft / 45 m 7,291 ft / 2,222 m 353.04° 343.97° Asphalt 0 ft / 0 m 185 ft / 56 m

Map

Weather


0- 5 10 15 20 25 30 35+ Temperature / ° C

Clouds and Precipitation
Forecast for 2017-12-13 00:00 UTC. Updated 27 minutes ago

Ground ~20,000 ft ~40,000 ft Winds

METAR

MMLT 122245Z 04010KT 8SM FEW040 SCT150 25/18 A2993 RMK 8/120 HZY SE

TAF

Not found

Frequencies

Tower 118.40 MHz TWR
Warning: Do not use this data for real-world aviation or navigation. No guarantee of current accuracy is given.